createdAt,value
2023-02-18T00:00:20.037Z,100552.78
2023-02-18T00:01:23.611Z,100548.94
2023-02-18T00:02:26.337Z,100548.09
2023-02-18T00:03:30.371Z,100557.47
2023-02-18T00:04:32.852Z,100558.03
2023-02-18T00:05:35.011Z,100565.22
2023-02-18T00:06:37.366Z,100559.97
2023-02-18T00:07:41.200Z,100559.97
2023-02-18T00:08:45.116Z,100556.59
2023-02-18T00:09:47.323Z,100553.84
2023-02-18T00:10:49.621Z,100554.44
2023-02-18T00:11:52.782Z,100550.75
2023-02-18T00:12:55.005Z,100550.50
2023-02-18T00:13:59.750Z,100552.16
2023-02-18T00:15:01.997Z,100547.75
2023-02-18T00:16:08.885Z,100552.16
2023-02-18T00:17:12.418Z,100560.44
2023-02-18T00:18:14.873Z,100554.09
2023-02-18T00:19:20.284Z,100551.84
2023-02-18T00:20:22.432Z,100552.06
2023-02-18T00:21:25.385Z,100549.91
2023-02-18T00:22:28.038Z,100556.25
2023-02-18T00:23:30.281Z,100551.84
2023-02-18T00:24:32.438Z,100547.16
2023-02-18T00:25:34.836Z,100551.84
2023-02-18T00:26:37.065Z,100552.06
2023-02-18T00:27:40.676Z,100549.31
2023-02-18T00:28:43.502Z,100548.47
2023-02-18T00:29:46.621Z,100542.41
2023-02-18T00:30:48.816Z,100547.91
2023-02-18T00:31:52.402Z,100554.50
2023-02-18T00:32:57.281Z,100558.94
2023-02-18T00:34:00.599Z,100556.19
2023-02-18T00:35:03.707Z,100555.56
2023-02-18T00:36:13.095Z,100553.63
2023-02-18T00:37:15.540Z,100550.88
2023-02-18T00:38:18.034Z,100556.66
2023-02-18T00:39:20.511Z,100565.75
2023-02-18T00:40:22.718Z,100560.25
2023-02-18T00:41:26.464Z,100559.41
2023-02-18T00:42:30.095Z,100559.41
2023-02-18T00:43:32.435Z,100559.41
2023-02-18T00:44:34.629Z,100572.09
2023-02-18T00:45:36.823Z,100566.59
2023-02-18T00:46:40.757Z,100564.34
2023-02-18T00:47:43.126Z,100562.41
2023-02-18T00:48:46.829Z,100570.41
2023-02-18T00:49:50.004Z,100567.91
2023-02-18T00:50:52.254Z,100566.25
2023-02-18T00:51:54.523Z,100566.25
2023-02-18T00:52:57.839Z,100567.91
2023-02-18T00:54:00.148Z,100573.19
2023-02-18T00:55:02.342Z,100571.75
2023-02-18T00:56:05.322Z,100578.94
2023-02-18T00:57:07.577Z,100574.25
2023-02-18T00:58:10.516Z,100573.44
2023-02-18T00:59:12.790Z,100570.06
2023-02-18T01:00:15.606Z,100570.91
2023-02-18T01:01:19.097Z,100573.69
2023-02-18T01:02:21.384Z,100571.16
2023-02-18T01:03:24.697Z,100573.06
2023-02-18T01:04:26.941Z,100573.94
2023-02-18T01:05:30.466Z,100565.06
2023-02-18T01:06:34.138Z,100573.31
2023-02-18T01:07:38.222Z,100571.38
2023-02-18T01:08:42.266Z,100576.06
2023-02-18T01:09:44.590Z,100574.16
2023-02-18T01:10:48.578Z,100579.91
2023-02-18T01:11:50.732Z,100580.50
2023-02-18T01:12:52.899Z,100569.75
2023-02-18T01:13:55.095Z,100575.25
2023-02-18T01:14:57.231Z,100575.25
2023-02-18T01:15:59.561Z,100581.59
2023-02-18T01:17:01.702Z,100575.47
2023-02-18T01:18:04.106Z,100579.91
2023-02-18T01:19:08.574Z,100575.72
2023-02-18T01:20:11.962Z,100575.72
2023-02-18T01:21:14.601Z,100577.66
2023-02-18T01:22:18.185Z,100583.16
2023-02-18T01:23:21.015Z,100582.09
2023-02-18T01:24:24.054Z,100583.16
2023-02-18T01:25:28.223Z,100581.22
2023-02-18T01:26:31.862Z,100580.41
2023-02-18T01:27:34.022Z,100575.97
2023-02-18T01:28:37.625Z,100578.72
2023-02-18T01:29:42.432Z,100573.72
2023-02-18T01:30:44.973Z,100569.84
2023-02-18T01:31:47.838Z,100568.78
2023-02-18T01:32:50.407Z,100580.03
2023-02-18T01:33:52.570Z,100579.22
2023-02-18T01:34:55.987Z,100569.03
2023-02-18T01:35:58.296Z,100569.28
2023-02-18T01:37:00.490Z,100569.28
2023-02-18T01:38:02.879Z,100566.78
2023-02-18T01:39:06.108Z,100575.84
2023-02-18T01:40:11.767Z,100575.84
2023-02-18T01:41:13.990Z,100567.81
2023-02-18T01:42:22.189Z,100563.63
2023-02-18T01:43:25.588Z,100568.06
2023-02-18T01:44:28.933Z,100571.06
2023-02-18T01:45:34.274Z,100565.56
2023-02-18T01:46:36.455Z,100569.38
2023-02-18T01:47:38.766Z,100568.53
2023-02-18T01:48:51.786Z,100568.78
2023-02-18T01:49:54.158Z,100566.03
2023-02-18T01:51:09.019Z,100574.28
2023-02-18T01:52:24.818Z,100566.28
2023-02-18T01:53:49.527Z,100564.59
2023-02-18T01:54:57.620Z,100575.84
2023-02-18T01:56:03.948Z,100566.53
2023-02-18T01:57:18.212Z,100558.72
2023-02-18T01:58:21.484Z,100574.44
2023-02-18T01:59:32.991Z,100570.00
2023-02-18T02:00:37.138Z,100564.47
2023-02-18T02:01:42.720Z,100561.97
2023-02-18T02:02:46.977Z,100560.28
2023-02-18T02:03:49.214Z,100561.63
2023-02-18T02:04:52.205Z,100560.53
2023-02-18T02:05:54.377Z,100563.53
2023-02-18T02:06:57.555Z,100560.19
2023-02-18T02:08:01.398Z,100565.69
2023-02-18T02:09:07.963Z,100569.50
2023-02-18T02:10:12.203Z,100572.50
2023-02-18T02:11:28.228Z,100569.75
2023-02-18T02:12:39.357Z,100568.94
2023-02-18T02:13:52.437Z,100569.19
2023-02-18T02:15:16.712Z,100576.59
2023-02-18T02:16:30.143Z,100579.59
2023-02-18T02:17:41.675Z,100576.25
2023-02-18T02:19:05.491Z,100588.91
2023-02-18T02:20:48.883Z,100573.50
2023-02-18T02:22:23.741Z,100573.50
2023-02-18T02:23:38.031Z,100577.31
2023-02-18T02:24:50.607Z,100567.63
2023-02-18T02:26:21.215Z,100569.78
2023-02-18T02:27:44.433Z,100570.53
2023-02-18T02:29:15.660Z,100571.34
2023-02-18T02:30:49.062Z,100567.75
2023-02-18T02:32:17.125Z,100558.06
2023-02-18T02:33:38.385Z,100563.59
2023-02-18T02:34:48.204Z,100569.91
2023-02-18T02:36:11.739Z,100568.22
2023-02-18T02:37:25.993Z,100567.66
2023-02-18T02:38:45.608Z,100566.22
2023-02-18T02:39:56.751Z,100565.34
2023-02-18T02:41:21.396Z,100557.34
2023-02-18T02:42:48.551Z,100568.00
2023-02-18T02:44:02.320Z,100567.66
2023-02-18T02:45:13.762Z,100564.53
2023-02-18T02:46:29.645Z,100572.78
2023-02-18T02:47:51.540Z,100568.84
2023-02-18T02:49:21.463Z,100568.25
2023-02-18T02:50:51.983Z,100572.53
2023-02-18T02:52:21.073Z,100566.44
2023-02-18T02:53:27.681Z,100558.19
2023-02-18T02:54:30.168Z,100559.03
2023-02-18T02:55:32.569Z,100557.09
2023-02-18T02:56:34.864Z,100558.19
2023-02-18T02:57:39.752Z,100551.25
2023-02-18T02:58:59.746Z,100558.19
2023-02-18T03:00:08.631Z,100559.84
2023-02-18T03:01:58.626Z,100560.94
2023-02-18T03:03:14.733Z,100557.09
2023-02-18T03:04:26.799Z,100557.09
2023-02-18T03:05:48.413Z,100559.63
2023-02-18T03:07:20.820Z,100558.78
2023-02-18T03:08:41.149Z,100563.47
2023-02-18T03:09:54.262Z,100556.63
2023-02-18T03:11:03.994Z,100567.03
2023-02-18T03:12:17.116Z,100575.06
2023-02-18T03:14:11.671Z,100563.69
2023-02-18T03:15:32.938Z,100565.38
2023-02-18T03:16:53.510Z,100565.38
2023-02-18T03:18:08.530Z,100579.97
2023-02-18T03:19:29.872Z,100579.38
2023-02-18T03:20:37.360Z,100575.53
2023-02-18T03:21:51.896Z,100564.16
2023-02-18T03:22:57.406Z,100570.50
2023-02-18T03:24:08.972Z,100569.19
2023-02-18T03:25:13.161Z,100565.84
2023-02-18T03:26:18.957Z,100561.66
2023-02-18T03:27:59.673Z,100558.44
2023-02-18T03:29:05.116Z,100569.66
2023-02-18T03:30:10.940Z,100564.78
2023-02-18T03:31:18.546Z,100565.25
2023-02-18T03:32:25.579Z,100556.75
2023-02-18T03:33:37.719Z,100560.94
2023-02-18T03:34:46.069Z,100564.78
2023-02-18T03:35:51.430Z,100566.69
2023-02-18T03:36:55.586Z,100565.59
2023-02-18T03:38:07.104Z,100562.84
2023-02-18T03:39:30.268Z,100561.53
2023-02-18T03:40:32.915Z,100569.78
2023-02-18T03:41:37.191Z,100574.22
2023-02-18T03:42:39.483Z,100570.38
2023-02-18T03:43:50.204Z,100568.47
2023-02-18T03:44:52.445Z,100563.81
2023-02-18T03:45:56.912Z,100562.13
2023-02-18T03:47:01.038Z,100560.22
2023-02-18T03:48:03.499Z,100568.25
2023-02-18T03:49:06.214Z,100571.00
2023-02-18T03:50:08.925Z,100555.56
2023-02-18T03:51:11.483Z,100572.66
2023-02-18T03:52:13.757Z,100561.06
2023-02-18T03:53:17.466Z,100560.81
2023-02-18T03:54:20.461Z,100558.66
2023-02-18T03:55:23.259Z,100556.75
2023-02-18T03:56:25.499Z,100557.59
2023-02-18T03:57:27.656Z,100556.53
2023-02-18T03:58:29.859Z,100566.91
2023-02-18T03:59:32.159Z,100571.13
2023-02-18T04:00:34.434Z,100576.63
2023-02-18T04:01:37.390Z,100566.44
2023-02-18T04:02:40.061Z,100568.97
2023-02-18T04:03:42.499Z,100574.47
2023-02-18T04:04:44.746Z,100568.97
2023-02-18T04:05:48.196Z,100569.19
2023-02-18T04:06:50.712Z,100577.22
2023-02-18T04:07:52.986Z,100570.63
2023-02-18T04:08:55.553Z,100570.88
2023-02-18T04:09:57.698Z,100571.72
2023-02-18T04:11:00.044Z,100570.63
2023-02-18T04:12:02.190Z,100570.88
2023-02-18T04:13:05.314Z,100571.94
2023-02-18T04:14:08.330Z,100576.38
2023-02-18T04:15:10.543Z,100575.31
2023-02-18T04:16:12.923Z,100576.13
2023-02-18T04:17:15.121Z,100580.81
2023-02-18T04:18:17.423Z,100576.13
2023-02-18T04:19:19.716Z,100568.72
2023-02-18T04:20:22.710Z,100578.88
2023-02-18T04:21:25.922Z,100578.06
2023-02-18T04:22:28.137Z,100569.78
2023-02-18T04:23:30.736Z,100569.78
2023-02-18T04:24:32.952Z,100573.63
2023-02-18T04:25:35.742Z,100574.94
2023-02-18T04:26:39.329Z,100587.38
2023-02-18T04:27:42.093Z,100578.28
2023-02-18T04:28:44.474Z,100579.38
2023-02-18T04:29:46.712Z,100582.13
2023-02-18T04:30:49.491Z,100581.06
2023-02-18T04:31:51.863Z,100580.19
2023-02-18T04:32:54.189Z,100582.13
2023-02-18T04:33:56.626Z,100574.47
2023-02-18T04:34:58.800Z,100567.28
2023-02-18T04:36:01.040Z,100557.09
2023-02-18T04:37:03.277Z,100546.09
2023-02-18T04:38:05.453Z,100546.97
2023-02-18T04:39:07.851Z,100543.09
2023-02-18T04:40:11.026Z,100547.53
2023-02-18T04:41:13.480Z,100540.97
2023-02-18T04:42:15.757Z,100541.78
2023-02-18T04:43:17.922Z,100555.53
2023-02-18T04:44:20.072Z,100559.16
2023-02-18T04:45:22.578Z,100555.53
2023-02-18T04:46:24.815Z,100554.97
2023-02-18T04:47:27.355Z,100562.16
2023-02-18T04:48:29.546Z,100561.28
2023-02-18T04:49:31.919Z,100561.28
2023-02-18T04:50:34.337Z,100566.78
2023-02-18T04:51:38.235Z,100565.13
2023-02-18T04:52:40.420Z,100570.41
2023-02-18T04:53:43.992Z,100569.56
2023-02-18T04:54:46.426Z,100575.66
2023-02-18T04:55:52.776Z,100570.41
2023-02-18T04:56:55.075Z,100571.22
2023-02-18T04:57:57.307Z,100576.50
2023-02-18T04:58:59.963Z,100573.75
2023-02-18T05:00:03.768Z,100565.47
2023-02-18T05:01:06.270Z,100569.91
2023-02-18T05:02:08.524Z,100572.66
2023-02-18T05:03:10.806Z,100574.59
2023-02-18T05:04:13.082Z,100568.59
2023-02-18T05:05:15.999Z,100568.84
2023-02-18T05:06:19.231Z,100563.91
2023-02-18T05:07:22.674Z,100567.78
2023-02-18T05:08:24.998Z,100570.53
2023-02-18T05:09:28.694Z,100565.03
2023-02-18T05:10:31.084Z,100557.84
2023-02-18T05:11:34.856Z,100564.16
2023-02-18T05:12:37.151Z,100570.53
2023-02-18T05:13:39.473Z,100560.59
2023-02-18T05:14:41.766Z,100560.59
2023-02-18T05:15:44.052Z,100558.66
2023-02-18T05:16:46.481Z,100554.00
2023-02-18T05:17:49.014Z,100554.84
2023-02-18T05:18:51.187Z,100549.34
2023-02-18T05:19:53.385Z,100556.78
2023-02-18T05:20:55.679Z,100554.59
2023-02-18T05:21:57.948Z,100551.84
2023-02-18T05:23:00.135Z,100551.03
2023-02-18T05:24:02.396Z,100549.94
2023-02-18T05:25:04.967Z,100551.84
2023-02-18T05:26:07.499Z,100548.25
2023-02-18T05:27:09.851Z,100540.84
2023-02-18T05:28:12.121Z,100541.69
2023-02-18T05:29:15.858Z,100538.94
2023-02-18T05:30:18.565Z,100536.19
2023-02-18T05:31:20.844Z,100529.81
2023-02-18T05:32:23.722Z,100537.84
2023-02-18T05:33:25.924Z,100535.09
2023-02-18T05:34:28.114Z,100540.59
2023-02-18T05:35:30.361Z,100528.75
2023-02-18T05:36:32.731Z,100532.94
2023-02-18T05:37:35.212Z,100534.00
2023-02-18T05:38:37.459Z,100527.69
2023-02-18T05:39:41.277Z,100525.75
2023-02-18T05:40:43.738Z,100528.25
2023-02-18T05:41:45.868Z,100525.50
2023-02-18T05:42:48.960Z,100527.44
2023-02-18T05:44:11.482Z,100529.38
2023-02-18T05:45:13.866Z,100526.59
2023-02-18T05:46:16.107Z,100522.75
2023-02-18T05:47:18.314Z,100526.38
2023-02-18T05:48:20.515Z,100525.50
2023-02-18T05:49:22.709Z,100524.44
2023-02-18T05:50:25.142Z,100521.69
2023-02-18T05:51:27.404Z,100514.25
2023-02-18T05:52:29.732Z,100523.38
2023-02-18T05:53:33.074Z,100515.09
2023-02-18T05:54:37.681Z,100526.69
2023-02-18T05:55:39.863Z,100523.94
2023-02-18T05:56:42.175Z,100513.19
2023-02-18T05:57:44.685Z,100524.19
2023-02-18T05:58:47.353Z,100516.78
2023-02-18T05:59:49.588Z,100521.44
2023-02-18T06:00:51.991Z,100518.44
2023-02-18T06:01:55.036Z,100510.44
2023-02-18T06:02:58.122Z,100510.44
2023-02-18T06:04:00.358Z,100515.94
2023-02-18T06:05:02.918Z,100512.34
2023-02-18T06:06:05.694Z,100514.25
2023-02-18T06:07:07.954Z,100510.19
2023-02-18T06:08:10.171Z,100510.19
2023-02-18T06:09:12.595Z,100513.78
2023-02-18T06:10:14.863Z,100505.78
2023-02-18T06:11:17.172Z,100506.84
2023-02-18T06:12:19.740Z,100510.44
2023-02-18T06:13:22.137Z,100512.94
2023-02-18T06:14:25.182Z,100508.53
2023-02-18T06:15:27.441Z,100508.53
2023-02-18T06:16:30.261Z,100514.03
2023-02-18T06:17:32.796Z,100507.44
2023-02-18T06:18:35.068Z,100512.09
2023-02-18T06:19:37.573Z,100510.19
2023-02-18T06:20:41.045Z,100509.34
2023-02-18T06:21:43.446Z,100503.03
2023-02-18T06:22:45.688Z,100504.91
2023-02-18T06:23:48.006Z,100503.84
2023-02-18T06:24:50.206Z,100507.44
2023-02-18T06:25:52.439Z,100503.03
2023-02-18T06:26:55.103Z,100505.78
2023-02-18T06:27:57.356Z,100504.91
2023-02-18T06:29:01.045Z,100507.66
2023-02-18T06:30:03.978Z,100501.34
2023-02-18T06:31:06.273Z,100506.00
2023-02-18T06:32:08.627Z,100502.41
2023-02-18T06:33:12.310Z,100506.00
2023-02-18T06:34:14.488Z,100511.50
2023-02-18T06:35:16.733Z,100515.94
2023-02-18T06:36:19.404Z,100501.34
2023-02-18T06:37:21.656Z,100507.66
2023-02-18T06:38:24.032Z,100506.84
2023-02-18T06:39:26.322Z,100504.91
2023-02-18T06:40:28.538Z,100506.84
2023-02-18T06:41:30.737Z,100501.59
2023-02-18T06:42:32.936Z,100503.25
2023-02-18T06:43:35.798Z,100503.03
2023-02-18T06:44:38.217Z,100497.72
2023-02-18T06:45:40.905Z,100493.91
2023-02-18T06:46:43.129Z,100498.59
2023-02-18T06:47:45.441Z,100494.97
2023-02-18T06:48:48.560Z,100486.72
2023-02-18T06:49:51.245Z,100487.84
2023-02-18T06:50:53.532Z,100495.84
2023-02-18T06:51:56.195Z,100496.66
2023-02-18T06:52:59.738Z,100502.16
2023-02-18T06:54:02.734Z,100496.66
2023-02-18T06:55:06.181Z,100503.03
2023-02-18T06:56:08.625Z,100495.59
2023-02-18T06:57:11.148Z,100493.09
2023-02-18T06:58:14.464Z,100499.41
2023-02-18T06:59:16.975Z,100494.97
2023-02-18T07:00:19.585Z,100490.34
2023-02-18T07:01:24.795Z,100490.34
2023-02-18T07:02:27.031Z,100485.91
2023-02-18T07:03:29.830Z,100484.84
2023-02-18T07:04:32.092Z,100483.16
2023-02-18T07:05:34.806Z,100486.72
2023-02-18T07:06:37.661Z,100485.91
2023-02-18T07:07:39.895Z,100491.41
2023-02-18T07:08:42.292Z,100482.31
2023-02-18T07:09:44.468Z,100488.66
2023-02-18T07:10:47.610Z,100487.84
2023-02-18T07:11:49.883Z,100480.41
2023-02-18T07:12:52.169Z,100483.97
2023-02-18T07:13:54.404Z,100478.72
2023-02-18T07:14:56.611Z,100480.41
2023-02-18T07:15:59.678Z,100476.81
2023-02-18T07:17:01.853Z,100475.13
2023-02-18T07:18:04.252Z,100476.81
2023-02-18T07:19:06.762Z,100474.91
2023-02-18T07:20:10.311Z,100466.63
2023-02-18T07:21:12.594Z,100471.31
2023-02-18T07:22:14.830Z,100467.47
2023-02-18T07:23:17.025Z,100464.72
2023-02-18T07:24:20.361Z,100472.13
2023-02-18T07:25:23.528Z,100472.13
2023-02-18T07:26:25.839Z,100461.13
2023-02-18T07:27:27.985Z,100467.47
2023-02-18T07:28:30.581Z,100463.88
2023-02-18T07:29:32.758Z,100453.69
2023-02-18T07:30:35.161Z,100456.44
2023-02-18T07:31:39.171Z,100451.81
2023-02-18T07:32:42.736Z,100444.63
2023-02-18T07:33:44.952Z,100455.38
2023-02-18T07:34:47.133Z,100449.03
2023-02-18T07:35:57.344Z,100441.63
2023-02-18T07:36:59.555Z,100450.72
2023-02-18T07:38:03.329Z,100458.13
2023-02-18T07:39:05.527Z,100452.63
2023-02-18T07:40:10.569Z,100438.88
2023-02-18T07:41:23.107Z,100447.13
2023-02-18T07:42:25.538Z,100436.97
2023-02-18T07:43:27.731Z,100440.78
2023-02-18T07:44:31.848Z,100452.63
2023-02-18T07:45:34.108Z,100443.28
2023-02-18T07:46:40.680Z,100436.09
2023-02-18T07:47:43.163Z,100419.59
2023-02-18T07:48:45.426Z,100424.28
2023-02-18T07:49:47.947Z,100422.59
2023-02-18T07:50:50.305Z,100436.09
2023-02-18T07:51:52.602Z,100438.03
2023-02-18T07:52:54.841Z,100424.28
2023-02-18T07:53:57.047Z,100413.84
2023-02-18T07:54:59.333Z,100414.09
2023-02-18T07:56:02.561Z,100411.34
2023-02-18T07:57:05.102Z,100421.53
2023-02-18T07:58:07.295Z,100423.41
2023-02-18T07:59:10.063Z,100414.09
2023-02-18T08:00:13.204Z,100423.19
2023-02-18T08:01:16.369Z,100406.69
2023-02-18T08:02:22.002Z,100406.44
2023-02-18T08:03:30.143Z,100406.44
2023-02-18T08:04:32.903Z,100411.09
2023-02-18T08:05:35.069Z,100412.78
2023-02-18T08:06:39.907Z,100410.88
2023-02-18T08:07:42.249Z,100412.78
2023-02-18T08:08:44.959Z,100412.50
2023-02-18T08:09:49.216Z,100405.94
2023-02-18T08:10:53.345Z,100404.25
2023-02-18T08:11:55.583Z,100397.69
2023-02-18T08:12:58.813Z,100394.09
2023-02-18T08:14:01.458Z,100385.00
2023-02-18T08:15:04.041Z,100383.09
2023-02-18T08:16:06.825Z,100392.19
2023-02-18T08:17:09.195Z,100383.09
2023-02-18T08:18:20.242Z,100382.03
2023-02-18T08:19:22.438Z,100394.47
2023-02-18T08:20:25.865Z,100387.28
2023-02-18T08:21:29.324Z,100393.59
2023-02-18T08:22:31.661Z,100394.47
2023-02-18T08:23:33.956Z,100388.94
2023-02-18T08:24:36.144Z,100383.44
2023-02-18T08:25:38.448Z,100382.34
2023-02-18T08:26:54.308Z,100373.88
2023-02-18T08:28:01.930Z,100376.84
2023-02-18T08:29:05.569Z,100371.94
2023-02-18T08:30:08.571Z,100372.75
2023-02-18T08:31:26.113Z,100378.03
2023-02-18T08:32:29.155Z,100376.94
2023-02-18T08:33:31.719Z,100371.44
2023-02-18T08:34:33.972Z,100363.16
2023-02-18T08:35:36.119Z,100365.94
2023-02-18T08:36:38.276Z,100353.84
2023-02-18T08:37:52.931Z,100348.34
2023-02-18T08:38:57.914Z,100348.59
2023-02-18T08:40:02.212Z,100345.56
2023-02-18T08:41:06.239Z,100346.44
2023-02-18T08:42:08.609Z,100344.50
2023-02-18T08:43:11.066Z,100348.06
2023-02-18T08:44:13.408Z,100342.56
2023-02-18T08:45:15.712Z,100342.34
2023-02-18T08:46:24.995Z,100342.34
2023-02-18T08:48:18.755Z,100341.50
2023-02-18T08:48:59.390Z,100329.66
2023-02-18T08:50:01.604Z,100334.31
2023-02-18T08:51:18.009Z,100330.75
2023-02-18T08:52:20.480Z,100330.75
2023-02-18T08:53:22.931Z,100332.41
2023-02-18T08:54:25.319Z,100323.31
2023-02-18T08:55:27.753Z,100327.97
2023-02-18T08:56:31.822Z,100329.91
2023-02-18T08:57:35.077Z,100322.47
2023-02-18T08:58:37.690Z,100315.28
2023-02-18T08:59:39.876Z,100312.53
2023-02-18T09:00:43.416Z,100316.97
2023-02-18T09:01:46.698Z,100316.72
2023-02-18T09:02:48.894Z,100315.91
2023-02-18T09:03:51.407Z,100309.53
2023-02-18T09:04:53.612Z,100301.06
2023-02-18T09:05:56.969Z,100302.13
2023-02-18T09:06:59.283Z,100300.19
2023-02-18T09:08:01.520Z,100297.19
2023-02-18T09:09:04.624Z,100286.44
2023-02-18T09:10:08.675Z,100290.03
2023-02-18T09:11:11.401Z,100284.53
2023-02-18T09:12:13.796Z,100289.78
2023-02-18T09:13:18.104Z,100285.34
2023-02-18T09:14:20.269Z,100284.75
2023-02-18T09:15:22.555Z,100285.59
2023-02-18T09:16:26.324Z,100287.28
2023-02-18T09:17:29.278Z,100286.44
2023-02-18T09:18:32.775Z,100275.16
2023-02-18T09:19:34.922Z,100272.41
2023-02-18T09:20:40.722Z,100271.34
2023-02-18T09:21:44.308Z,100275.75
2023-02-18T09:22:47.764Z,100272.16
2023-02-18T09:23:52.047Z,100281.28
2023-02-18T09:24:54.308Z,100270.50
2023-02-18T09:25:58.699Z,100268.31
2023-02-18T09:27:00.938Z,100262.00
2023-02-18T09:28:03.423Z,100259.25
2023-02-18T09:29:05.596Z,100252.88
2023-02-18T09:30:08.778Z,100257.31
2023-02-18T09:31:18.587Z,100256.75
2023-02-18T09:32:33.735Z,100258.66
2023-02-18T09:33:38.051Z,100254.81
2023-02-18T09:34:41.566Z,100244.63
2023-02-18T09:35:46.116Z,100244.41
2023-02-18T09:36:48.300Z,100243.56
2023-02-18T09:37:50.458Z,100242.72
2023-02-18T09:38:53.358Z,100245.47
2023-02-18T09:39:55.617Z,100234.47
2023-02-18T09:40:59.581Z,100230.63
2023-02-18T09:42:05.789Z,100236.72
2023-02-18T09:43:19.649Z,100229.31
2023-02-18T09:44:27.232Z,100227.38
2023-02-18T09:45:30.284Z,100233.47
2023-02-18T09:46:36.578Z,100236.22
2023-02-18T09:47:42.688Z,100221.13
2023-02-18T09:48:47.000Z,100222.78
2023-02-18T09:49:54.534Z,100223.63
2023-02-18T09:50:57.309Z,100227.78
2023-02-18T09:52:11.037Z,100214.28
2023-02-18T09:53:13.690Z,100221.94
2023-02-18T09:54:18.931Z,100213.16
2023-02-18T09:55:30.341Z,100210.41
2023-02-18T09:56:35.717Z,100205.75
2023-02-18T09:57:53.445Z,100198.06
2023-02-18T09:58:58.646Z,100206.09
2023-02-18T10:00:06.426Z,100190.16
2023-02-18T10:01:32.782Z,100186.06
2023-02-18T10:02:40.957Z,100189.63
2023-02-18T10:03:44.506Z,100188.25
2023-02-18T10:04:52.258Z,100192.38
2023-02-18T10:06:12.975Z,100183.94
2023-02-18T10:07:26.401Z,100191.41
2023-02-18T10:08:36.202Z,100185.41
2023-02-18T10:09:41.936Z,100179.91
2023-02-18T10:10:46.541Z,100188.25
2023-02-18T10:11:52.451Z,100179.47
2023-02-18T10:12:55.719Z,100177.84
2023-02-18T10:14:04.305Z,100182.28
2023-02-18T10:15:19.579Z,100178.75
2023-02-18T10:16:23.454Z,100173.56
2023-02-18T10:17:28.534Z,100178.00
2023-02-18T10:18:43.458Z,100177.25
2023-02-18T10:19:48.637Z,100171.47
2023-02-18T10:20:53.088Z,100170.97
2023-02-18T10:21:56.288Z,100166.03
2023-02-18T10:23:03.235Z,100157.78
2023-02-18T10:24:44.503Z,100163.56
2023-02-18T10:25:49.463Z,100153.97
2023-02-18T10:26:51.791Z,100148.44
2023-02-18T10:27:54.341Z,100152.38
2023-02-18T10:28:57.499Z,100159.03
2023-02-18T10:30:45.967Z,100148.50
2023-02-18T10:32:11.926Z,100153.00
2023-02-18T10:33:35.678Z,100146.16
2023-02-18T10:34:42.309Z,100151.66
2023-02-18T10:36:03.062Z,100136.84
2023-02-18T10:37:46.547Z,100149.28
2023-02-18T10:39:10.473Z,100147.09
2023-02-18T10:40:34.492Z,100150.75
2023-02-18T10:42:07.233Z,100147.47
2023-02-18T10:43:28.193Z,100143.03
2023-02-18T10:45:08.217Z,100134.25
2023-02-18T10:46:27.453Z,100135.94
2023-02-18T10:47:46.387Z,100135.41
2023-02-18T10:49:09.487Z,100130.22
2023-02-18T10:50:26.900Z,100128.84
2023-02-18T10:51:35.500Z,100115.34
2023-02-18T10:52:44.599Z,100118.69
2023-02-18T10:53:49.633Z,100117.34
2023-02-18T10:54:57.786Z,100116.00
2023-02-18T10:56:00.392Z,100103.88
2023-02-18T10:57:04.893Z,100102.78
2023-02-18T10:58:27.887Z,100099.44
2023-02-18T10:59:33.759Z,100086.72
2023-02-18T11:00:40.363Z,100091.16
2023-02-18T11:01:46.686Z,100083.47
2023-02-18T11:03:03.850Z,100086.22
2023-02-18T11:04:16.071Z,100083.19
2023-02-18T11:05:25.862Z,100073.25
2023-02-18T11:06:33.007Z,100075.25
2023-02-18T11:07:38.342Z,100076.88
2023-02-18T11:08:46.976Z,100065.34
2023-02-18T11:09:52.885Z,100072.81
2023-02-18T11:10:56.443Z,100065.38
2023-02-18T11:12:08.302Z,100061.50
2023-02-18T11:13:15.240Z,100051.88
2023-02-18T11:14:38.141Z,100048.59
2023-02-18T11:15:58.388Z,100051.66
2023-02-18T11:17:10.036Z,100039.78
2023-02-18T11:18:26.760Z,100041.44
2023-02-18T11:19:37.493Z,100033.97
2023-02-18T11:20:40.233Z,100028.78
2023-02-18T11:21:42.499Z,100024.91
2023-02-18T11:22:44.795Z,100027.41
2023-02-18T11:23:50.466Z,100030.22
2023-02-18T11:25:01.155Z,100021.97
2023-02-18T11:26:06.793Z,100031.66
2023-02-18T11:27:14.262Z,100033.34
2023-02-18T11:28:16.982Z,100032.25
2023-02-18T11:29:25.547Z,100018.44
2023-02-18T11:30:39.798Z,100028.66
2023-02-18T11:31:48.227Z,100021.50
2023-02-18T11:32:55.594Z,100027.03
2023-02-18T11:34:01.266Z,100015.47
2023-02-18T11:35:05.264Z,100013.25
2023-02-18T11:36:31.364Z,100018.50
2023-02-18T11:37:35.754Z,100011.06
2023-02-18T11:38:46.345Z,100007.44
2023-02-18T11:39:51.970Z,100006.38
2023-02-18T11:41:10.355Z,100009.44
2023-02-18T11:42:19.738Z,99996.75
2023-02-18T11:43:22.465Z,99997.03
2023-02-18T11:44:32.967Z,100000.63
2023-02-18T11:45:35.735Z,99997.84
2023-02-18T11:46:37.915Z,99991.22
2023-02-18T11:47:40.180Z,100000.63
2023-02-18T11:48:42.725Z,100002.00
2023-02-18T11:50:00.424Z,99995.66
2023-02-18T11:51:04.385Z,99988.78
2023-02-18T11:52:20.230Z,99976.31
2023-02-18T11:53:54.095Z,100000.13
2023-02-18T11:55:27.921Z,99981.03
2023-02-18T11:56:33.279Z,99984.63
2023-02-18T11:57:38.761Z,99990.16
2023-02-18T11:58:44.319Z,99980.50
2023-02-18T11:59:46.563Z,99983.53
2023-02-18T12:00:53.410Z,99978.03
2023-02-18T12:02:10.711Z,99966.69
2023-02-18T12:03:22.819Z,99986.84
2023-02-18T12:04:31.712Z,99970.81
2023-02-18T12:05:34.808Z,99980.22
2023-02-18T12:06:51.070Z,99976.34
2023-02-18T12:08:01.664Z,99979.38
2023-02-18T12:09:20.761Z,99974.13
2023-02-18T12:10:35.015Z,99982.72
2023-02-18T12:11:42.432Z,99968.88
2023-02-18T12:13:24.068Z,99974.69
2023-02-18T12:14:26.302Z,99970.81
2023-02-18T12:15:35.782Z,99985.97
2023-02-18T12:16:46.812Z,99971.59
2023-02-18T12:18:16.392Z,99970.78
2023-02-18T12:19:45.539Z,99990.38
2023-02-18T12:21:21.507Z,99985.69
2023-02-18T12:22:32.990Z,99976.31
2023-02-18T12:23:47.888Z,99981.53
2023-02-18T12:25:13.806Z,99985.66
2023-02-18T12:26:52.971Z,99989.50
2023-02-18T12:28:32.853Z,99981.81
2023-02-18T12:29:56.728Z,99990.91
2023-02-18T12:31:14.214Z,99975.72
2023-02-18T12:32:54.747Z,99982.63
2023-02-18T12:34:03.057Z,99974.63
2023-02-18T12:35:34.409Z,99967.16
2023-02-18T12:36:54.907Z,99979.28
2023-02-18T12:38:27.902Z,99973.50
2023-02-18T12:39:40.162Z,99977.63
2023-02-18T12:41:05.840Z,99975.97
2023-02-18T12:42:26.716Z,99972.38
2023-02-18T12:43:55.654Z,99971.00
2023-02-18T12:45:21.094Z,99986.16